Time;durP1;ratioP1;P1;durP2;ratioP2;P2;SDS_P1;SDS_P2;PMS_P1;PMS_P2;Temp;Humidity;BMP_temperature;BMP_pressure;BME280_temperature;BME280_humidity;BME280_pressure;Samples;Min_cycle;Max_cycle;Signal;HPM_P1;HPM_P2
2024/02/04 00:01:44;;;;;;;9.10;4.50;;;;;;;-128.00;-1.00;-1.00;103016;1253;1004523;-75
2024/02/04 00:04:10;;;;;;;9.30;4.80;;;;;;;-128.00;-1.00;-1.00;102981;1253;1004782;-75
2024/02/04 00:06:37;;;;;;;7.50;4.90;;;;;;;-128.00;-1.00;-1.00;103013;1253;1003897;-79
2024/02/04 00:09:04;;;;;;;9.50;5.30;;;;;;;-128.00;-1.00;-1.00;103007;1254;1003730;-75
2024/02/04 00:11:31;;;;;;;11.90;6.80;;;;;;;-128.00;-1.00;-1.00;103002;1255;1004538;-79
2024/02/04 00:13:57;;;;;;;13.20;7.40;;;;;;;-128.00;-1.00;-1.00;102992;1253;1005043;-75
2024/02/04 00:16:23;;;;;;;16.50;7.80;;;;;;;-128.00;-1.00;-1.00;102954;1254;1003585;-76
2024/02/04 00:18:50;;;;;;;11.90;6.60;;;;;;;-128.00;-1.00;-1.00;102961;1253;1005181;-79
2024/02/04 00:21:16;;;;;;;12.80;8.30;;;;;;;-128.00;-1.00;-1.00;103054;1253;1004134;-79
2024/02/04 00:23:43;;;;;;;7.10;4.90;;;;;;;-128.00;-1.00;-1.00;102975;1253;1004501;-75
2024/02/04 00:26:09;;;;;;;9.00;5.10;;;;;;;-128.00;-1.00;-1.00;103009;1253;1004227;-79
2024/02/04 00:28:36;;;;;;;11.60;7.10;;;;;;;-128.00;-1.00;-1.00;103051;1252;1004305;-79
2024/02/04 00:31:02;;;;;;;12.70;6.30;;;;;;;-128.00;-1.00;-1.00;103018;1253;1004066;-78
2024/02/04 00:33:29;;;;;;;10.20;6.00;;;;;;;-128.00;-1.00;-1.00;103067;1253;1004570;-75
2024/02/04 00:35:55;;;;;;;9.70;6.00;;;;;;;-128.00;-1.00;-1.00;103025;1253;1004726;-75
2024/02/04 00:38:22;;;;;;;14.10;6.90;;;;;;;-128.00;-1.00;-1.00;103032;1254;1004551;-75
2024/02/04 00:40:49;;;;;;;10.20;5.60;;;;;;;-128.00;-1.00;-1.00;103050;1252;1005322;-75
2024/02/04 00:43:15;;;;;;;9.70;5.30;;;;;;;-128.00;-1.00;-1.00;103036;1253;1004697;-75
2024/02/04 00:45:42;;;;;;;7.10;5.20;;;;;;;-128.00;-1.00;-1.00;103018;1252;1004746;-79
2024/02/04 00:48:08;;;;;;;6.00;4.80;;;;;;;-128.00;-1.00;-1.00;103030;1253;1003871;-75
2024/02/04 00:50:35;;;;;;;12.80;7.20;;;;;;;-128.00;-1.00;-1.00;102968;1253;1003901;-75
2024/02/04 00:53:02;;;;;;;8.40;6.20;;;;;;;-128.00;-1.00;-1.00;102998;1253;1004837;-80
2024/02/04 00:55:28;;;;;;;9.40;5.70;;;;;;;-128.00;-1.00;-1.00;103017;1252;1004739;-75
2024/02/04 00:57:58;;;;;;;9.60;6.50;;;;;;;-128.00;-1.00;-1.00;102938;1253;1005138;-75
2024/02/04 01:00:28;;;;;;;9.70;6.10;;;;;;;-128.00;-1.00;-1.00;105516;1253;1058923;-80
2024/02/04 01:02:54;;;;;;;9.20;5.10;;;;;;;-128.00;-1.00;-1.00;105640;1253;1003479;-75
2024/02/04 01:05:21;;;;;;;11.30;6.30;;;;;;;-128.00;-1.00;-1.00;105681;1253;1004529;-79
2024/02/04 01:07:47;;;;;;;7.70;4.80;;;;;;;-128.00;-1.00;-1.00;105686;1253;1004246;-75
2024/02/04 01:10:14;;;;;;;6.20;4.30;;;;;;;-128.00;-1.00;-1.00;105719;1253;1003592;-79
2024/02/04 01:12:40;;;;;;;8.30;5.50;;;;;;;-128.00;-1.00;-1.00;104684;1253;1003717;-75
2024/02/04 01:15:07;;;;;;;7.60;4.30;;;;;;;-128.00;-1.00;-1.00;103057;1253;1004419;-75
2024/02/04 01:17:34;;;;;;;7.20;4.40;;;;;;;-128.00;-1.00;-1.00;103024;1253;1004913;-75
2024/02/04 01:20:00;;;;;;;18.00;8.40;;;;;;;-128.00;-1.00;-1.00;105265;1253;1004912;-79
2024/02/04 01:22:27;;;;;;;9.70;5.90;;;;;;;-128.00;-1.00;-1.00;105704;1252;1004708;-79
2024/02/04 01:24:53;;;;;;;7.60;5.40;;;;;;;-128.00;-1.00;-1.00;105225;1256;1004296;-79
2024/02/04 01:27:20;;;;;;;8.20;6.80;;;;;;;-128.00;-1.00;-1.00;103052;1253;1004242;-75
2024/02/04 01:29:46;;;;;;;3.00;2.00;;;;;;;-128.00;-1.00;-1.00;103044;1254;1004927;-77
2024/02/04 01:32:13;;;;;;;9.90;6.20;;;;;;;-128.00;-1.00;-1.00;103068;1257;1004914;-75
2024/02/04 01:34:40;;;;;;;8.50;6.00;;;;;;;-128.00;-1.00;-1.00;102987;1253;1005033;-75
2024/02/04 01:37:07;;;;;;;7.20;4.40;;;;;;;-128.00;-1.00;-1.00;102996;1253;1003975;-75
2024/02/04 01:39:33;;;;;;;4.90;3.80;;;;;;;-128.00;-1.00;-1.00;103027;1254;1004182;-77
2024/02/04 01:42:01;;;;;;;3.80;3.20;;;;;;;-128.00;-1.00;-1.00;103001;1256;1004716;-75
2024/02/04 01:44:27;;;;;;;5.10;3.40;;;;;;;-128.00;-1.00;-1.00;103020;1256;1004583;-80
2024/02/04 01:46:54;;;;;;;7.00;4.10;;;;;;;-128.00;-1.00;-1.00;102986;1253;1005623;-79
2024/02/04 01:49:21;;;;;;;7.90;4.70;;;;;;;-128.00;-1.00;-1.00;102986;1253;1003765;-79
2024/02/04 01:51:47;;;;;;;6.90;3.70;;;;;;;-128.00;-1.00;-1.00;102976;1255;1004870;-75
2024/02/04 01:54:14;;;;;;;9.60;5.00;;;;;;;-128.00;-1.00;-1.00;102957;1253;1004481;-79
2024/02/04 01:56:40;;;;;;;6.10;4.50;;;;;;;-128.00;-1.00;-1.00;102963;1253;1004192;-75
2024/02/04 01:59:07;;;;;;;5.20;4.40;;;;;;;-128.00;-1.00;-1.00;103054;1253;1004264;-79
2024/02/04 02:01:34;;;;;;;5.80;3.80;;;;;;;-128.00;-1.00;-1.00;103040;1253;1004256;-79
2024/02/04 02:04:02;;;;;;;6.40;3.70;;;;;;;-128.00;-1.00;-1.00;104146;1257;1005920;-75
2024/02/04 02:06:29;;;;;;;4.00;2.90;;;;;;;-128.00;-1.00;-1.00;105102;1253;1004320;-75
2024/02/04 02:08:55;;;;;;;3.90;2.90;;;;;;;-128.00;-1.00;-1.00;103045;1254;1003846;-75
2024/02/04 02:11:27;;;;;;;5.00;3.00;;;;;;;-128.00;-1.00;-1.00;102998;1253;1004664;-75
2024/02/04 02:13:57;;;;;;;4.60;2.50;;;;;;;-128.00;-1.00;-1.00;103062;1253;1059107;-79
2024/02/04 02:16:24;;;;;;;3.80;2.70;;;;;;;-128.00;-1.00;-1.00;102979;1253;1045753;-79
2024/02/04 02:18:56;;;;;;;3.70;2.20;;;;;;;-128.00;-1.00;-1.00;102939;1256;1005330;-79
2024/02/04 02:21:37;;;;;;;4.20;2.70;;;;;;;-128.00;-1.00;-1.00;103048;1256;1063208;-80
2024/02/04 02:24:09;;;;;;;3.90;3.00;;;;;;;-128.00;-1.00;-1.00;103062;1256;1060389;-75
2024/02/04 02:26:38;;;;;;;4.20;2.80;;;;;;;-128.00;-1.00;-1.00;103044;1256;1060558;-75
2024/02/04 02:29:05;;;;;;;4.70;3.20;;;;;;;-128.00;-1.00;-1.00;103094;1253;1047456;-80
2024/02/04 02:31:31;;;;;;;5.00;3.60;;;;;;;-128.00;-1.00;-1.00;103087;1253;1004660;-80
2024/02/04 02:33:58;;;;;;;4.50;2.80;;;;;;;-128.00;-1.00;-1.00;102982;1256;1005602;-79
2024/02/04 02:36:25;;;;;;;6.60;3.90;;;;;;;-128.00;-1.00;-1.00;103014;1257;1004503;-79
2024/02/04 02:39:09;;;;;;;4.90;4.30;;;;;;;-128.00;-1.00;-1.00;102956;1254;1006437;-75
2024/02/04 02:41:35;;;;;;;5.00;3.00;;;;;;;-128.00;-1.00;-1.00;102968;1256;1045202;-79
2024/02/04 02:44:03;;;;;;;5.60;3.40;;;;;;;-128.00;-1.00;-1.00;104076;1253;1004144;-79
2024/02/04 02:46:29;;;;;;;2.90;2.60;;;;;;;-128.00;-1.00;-1.00;103119;1254;1003227;-75
2024/02/04 02:48:56;;;;;;;5.00;3.30;;;;;;;-128.00;-1.00;-1.00;103027;1257;1003924;-75
2024/02/04 02:51:23;;;;;;;4.70;3.30;;;;;;;-128.00;-1.00;-1.00;103101;1257;1004776;-75
2024/02/04 02:53:49;;;;;;;4.30;3.10;;;;;;;-128.00;-1.00;-1.00;103029;1256;1004904;-75
2024/02/04 02:56:16;;;;;;;4.00;2.50;;;;;;;-128.00;-1.00;-1.00;103013;1256;1004886;-79
2024/02/04 02:58:42;;;;;;;3.30;2.50;;;;;;;-128.00;-1.00;-1.00;102954;1256;1004678;-75
2024/02/04 03:01:08;;;;;;;4.10;2.80;;;;;;;-128.00;-1.00;-1.00;103016;1257;1004376;-75
2024/02/04 03:03:35;;;;;;;6.40;3.60;;;;;;;-128.00;-1.00;-1.00;102988;1253;1004034;-75
2024/02/04 03:06:01;;;;;;;5.20;3.30;;;;;;;-128.00;-1.00;-1.00;103106;1255;1004226;-80
2024/02/04 03:08:28;;;;;;;3.50;2.80;;;;;;;-128.00;-1.00;-1.00;103013;1256;1005575;-79
2024/02/04 03:10:54;;;;;;;7.50;3.70;;;;;;;-128.00;-1.00;-1.00;102999;1254;1004964;-79
2024/02/04 03:13:21;;;;;;;4.10;2.70;;;;;;;-128.00;-1.00;-1.00;102978;1254;1004259;-79
2024/02/04 03:15:47;;;;;;;7.20;5.60;;;;;;;-128.00;-1.00;-1.00;102863;1253;1005366;-75
2024/02/04 03:18:14;;;;;;;7.70;5.30;;;;;;;-128.00;-1.00;-1.00;102869;1257;1004784;-80
2024/02/04 03:20:40;;;;;;;4.80;2.90;;;;;;;-128.00;-1.00;-1.00;102831;1254;1003596;-75
2024/02/04 03:23:07;;;;;;;5.30;3.00;;;;;;;-128.00;-1.00;-1.00;105247;1253;1003699;-79
2024/02/04 03:25:33;;;;;;;3.80;3.00;;;;;;;-128.00;-1.00;-1.00;104666;1256;1004561;-80
2024/02/04 03:27:59;;;;;;;4.60;2.80;;;;;;;-128.00;-1.00;-1.00;103059;1257;1003961;-79
2024/02/04 03:30:26;;;;;;;3.60;2.90;;;;;;;-128.00;-1.00;-1.00;103021;1255;1004810;-79
2024/02/04 03:32:52;;;;;;;3.50;2.60;;;;;;;-128.00;-1.00;-1.00;103001;1254;1061780;-81
2024/02/04 03:35:19;;;;;;;2.80;2.10;;;;;;;-128.00;-1.00;-1.00;102993;1257;1004651;-80
2024/02/04 03:37:45;;;;;;;3.50;2.30;;;;;;;-128.00;-1.00;-1.00;103001;1262;1006255;-80
2024/02/04 03:40:12;;;;;;;3.80;2.50;;;;;;;-128.00;-1.00;-1.00;102996;1255;1003795;-75
2024/02/04 03:42:40;;;;;;;5.30;3.30;;;;;;;-128.00;-1.00;-1.00;103041;1257;1004256;-75
2024/02/04 03:45:08;;;;;;;4.90;3.00;;;;;;;-128.00;-1.00;-1.00;105696;1253;1061590;-75
2024/02/04 03:47:35;;;;;;;4.20;3.10;;;;;;;-128.00;-1.00;-1.00;103284;1253;1003994;-76
2024/02/04 03:50:01;;;;;;;4.20;2.00;;;;;;;-128.00;-1.00;-1.00;103080;1253;1004568;-75
2024/02/04 03:52:27;;;;;;;4.30;3.00;;;;;;;-128.00;-1.00;-1.00;103606;1255;1004751;-75
2024/02/04 03:54:54;;;;;;;4.50;2.80;;;;;;;-128.00;-1.00;-1.00;103015;1256;1004412;-79
2024/02/04 03:57:20;;;;;;;3.80;2.50;;;;;;;-128.00;-1.00;-1.00;103019;1256;1004978;-80
2024/02/04 03:59:47;;;;;;;4.00;2.40;;;;;;;-128.00;-1.00;-1.00;103024;1257;1004453;-75
2024/02/04 04:02:13;;;;;;;1.50;1.20;;;;;;;-128.00;-1.00;-1.00;102979;1257;1005444;-75
2024/02/04 04:04:47;;;;;;;1.50;0.90;;;;;;;-128.00;-1.00;-1.00;102942;1255;1004104;-75
2024/02/04 04:07:13;;;;;;;1.50;1.10;;;;;;;-128.00;-1.00;-1.00;103027;1257;1049587;-79
2024/02/04 04:09:40;;;;;;;2.10;0.90;;;;;;;-128.00;-1.00;-1.00;103359;1254;1005096;-79
2024/02/04 04:12:06;;;;;;;2.60;1.70;;;;;;;-128.00;-1.00;-1.00;104889;1254;1003925;-75
2024/02/04 04:14:33;;;;;;;1.00;0.80;;;;;;;-128.00;-1.00;-1.00;103046;1254;1006269;-75
2024/02/04 04:16:59;;;;;;;3.20;1.70;;;;;;;-128.00;-1.00;-1.00;103016;1257;1004141;-80
2024/02/04 04:19:26;;;;;;;2.30;1.20;;;;;;;-128.00;-1.00;-1.00;103006;1254;1004982;-79
2024/02/04 04:21:53;;;;;;;2.50;1.30;;;;;;;-128.00;-1.00;-1.00;103023;1254;1005361;-79
2024/02/04 04:24:21;;;;;;;1.60;1.30;;;;;;;-128.00;-1.00;-1.00;103016;1253;1004344;-79
2024/02/04 04:26:48;;;;;;;1.60;1.30;;;;;;;-128.00;-1.00;-1.00;105735;1252;1059640;-79
2024/02/04 04:29:15;;;;;;;3.90;1.70;;;;;;;-128.00;-1.00;-1.00;103461;1253;1005590;-80
2024/02/04 04:31:41;;;;;;;2.70;1.30;;;;;;;-128.00;-1.00;-1.00;103047;1253;1004980;-75
2024/02/04 04:34:08;;;;;;;2.30;1.50;;;;;;;-128.00;-1.00;-1.00;102989;1255;1004927;-77
2024/02/04 04:36:34;;;;;;;2.80;1.40;;;;;;;-128.00;-1.00;-1.00;102981;1253;1004526;-76
2024/02/04 04:39:01;;;;;;;2.60;1.80;;;;;;;-128.00;-1.00;-1.00;103333;1255;1004021;-79
2024/02/04 04:41:27;;;;;;;5.80;3.60;;;;;;;-128.00;-1.00;-1.00;102946;1254;1004125;-80
2024/02/04 04:43:54;;;;;;;2.40;1.40;;;;;;;-128.00;-1.00;-1.00;102993;1252;1004750;-75
2024/02/04 04:46:20;;;;;;;2.40;1.50;;;;;;;-128.00;-1.00;-1.00;105341;1253;1003512;-75
2024/02/04 04:48:47;;;;;;;2.40;1.50;;;;;;;-128.00;-1.00;-1.00;105710;1254;1005213;-76
2024/02/04 04:51:13;;;;;;;2.40;1.50;;;;;;;-128.00;-1.00;-1.00;105704;1254;1004289;-75
2024/02/04 04:53:40;;;;;;;2.40;1.40;;;;;;;-128.00;-1.00;-1.00;105679;1254;1003774;-75
2024/02/04 04:56:07;;;;;;;4.30;3.30;;;;;;;-128.00;-1.00;-1.00;105666;1253;1004798;-79
2024/02/04 04:58:35;;;;;;;7.60;5.40;;;;;;;-128.00;-1.00;-1.00;103551;1254;1004945;-80
2024/02/04 05:01:01;;;;;;;3.70;2.70;;;;;;;-128.00;-1.00;-1.00;102985;1254;1004653;-75
2024/02/04 05:03:28;;;;;;;4.20;3.50;;;;;;;-128.00;-1.00;-1.00;102919;1254;1004961;-80
2024/02/04 05:05:54;;;;;;;3.10;2.60;;;;;;;-128.00;-1.00;-1.00;102991;1258;1004180;-75
2024/02/04 05:08:21;;;;;;;2.50;1.50;;;;;;;-128.00;-1.00;-1.00;102922;1254;1003836;-75
2024/02/04 05:10:47;;;;;;;2.50;1.50;;;;;;;-128.00;-1.00;-1.00;102874;1254;1003767;-75
2024/02/04 05:13:14;;;;;;;2.70;2.10;;;;;;;-128.00;-1.00;-1.00;103036;1256;1004122;-75
2024/02/04 05:15:40;;;;;;;4.30;3.80;;;;;;;-128.00;-1.00;-1.00;102901;1253;1005264;-75
2024/02/04 05:18:07;;;;;;;5.20;3.10;;;;;;;-128.00;-1.00;-1.00;105248;1254;1005452;-75
2024/02/04 05:20:34;;;;;;;7.90;4.90;;;;;;;-128.00;-1.00;-1.00;105720;1253;1004115;-75
2024/02/04 05:23:01;;;;;;;10.90;4.60;;;;;;;-128.00;-1.00;-1.00;103696;1254;1004474;-80
2024/02/04 05:25:27;;;;;;;4.10;2.70;;;;;;;-128.00;-1.00;-1.00;102972;1256;1004280;-80
2024/02/04 05:27:54;;;;;;;3.80;2.60;;;;;;;-128.00;-1.00;-1.00;102999;1254;1005257;-79
2024/02/04 05:30:20;;;;;;;6.80;4.60;;;;;;;-128.00;-1.00;-1.00;102992;1257;1005359;-75
2024/02/04 05:32:46;;;;;;;7.30;3.70;;;;;;;-128.00;-1.00;-1.00;103701;1254;1005450;-80
2024/02/04 05:35:13;;;;;;;5.00;3.70;;;;;;;-128.00;-1.00;-1.00;102993;1255;1004622;-75
2024/02/04 05:37:39;;;;;;;3.00;2.30;;;;;;;-128.00;-1.00;-1.00;102996;1252;1003907;-76
2024/02/04 05:40:06;;;;;;;2.20;1.50;;;;;;;-128.00;-1.00;-1.00;102975;1254;1004600;-75
2024/02/04 05:42:33;;;;;;;2.80;2.10;;;;;;;-128.00;-1.00;-1.00;105687;1253;1004973;-79
2024/02/04 05:44:59;;;;;;;9.10;4.20;;;;;;;-128.00;-1.00;-1.00;103349;1254;1004020;-79
2024/02/04 05:47:26;;;;;;;6.30;3.30;;;;;;;-128.00;-1.00;-1.00;103005;1256;1005008;-79
2024/02/04 05:49:52;;;;;;;2.60;1.40;;;;;;;-128.00;-1.00;-1.00;102953;1254;1004054;-75
2024/02/04 05:52:19;;;;;;;3.10;1.60;;;;;;;-128.00;-1.00;-1.00;102904;1255;1003866;-75
2024/02/04 05:54:45;;;;;;;2.20;1.20;;;;;;;-128.00;-1.00;-1.00;102854;1257;1004626;-75
2024/02/04 05:57:12;;;;;;;2.40;1.30;;;;;;;-128.00;-1.00;-1.00;102941;1253;1005049;-75
2024/02/04 05:59:39;;;;;;;2.00;1.40;;;;;;;-128.00;-1.00;-1.00;102798;1254;1003964;-75
2024/02/04 06:02:05;;;;;;;2.50;1.50;;;;;;;-128.00;-1.00;-1.00;102856;1254;1005644;-75
2024/02/04 06:04:32;;;;;;;3.20;2.40;;;;;;;-128.00;-1.00;-1.00;102872;1255;1004057;-75
2024/02/04 06:06:59;;;;;;;4.00;1.30;;;;;;;-128.00;-1.00;-1.00;103001;1253;1005223;-79
2024/02/04 06:09:25;;;;;;;1.10;0.80;;;;;;;-128.00;-1.00;-1.00;102966;1255;1004695;-79
2024/02/04 06:11:51;;;;;;;3.10;1.10;;;;;;;-128.00;-1.00;-1.00;103353;1254;1005161;-75
2024/02/04 06:14:18;;;;;;;1.60;1.40;;;;;;;-128.00;-1.00;-1.00;103133;1254;1004814;-74
2024/02/04 06:16:44;;;;;;;2.40;1.10;;;;;;;-128.00;-1.00;-1.00;102949;1254;1004168;-74
2024/02/04 06:19:12;;;;;;;2.40;1.30;;;;;;;-128.00;-1.00;-1.00;103167;1254;1005873;-75
2024/02/04 06:21:39;;;;;;;2.50;1.50;;;;;;;-128.00;-1.00;-1.00;105712;1253;1003759;-75
2024/02/04 06:24:06;;;;;;;2.10;1.40;;;;;;;-128.00;-1.00;-1.00;103867;1253;1004012;-75
2024/02/04 06:26:32;;;;;;;2.40;1.70;;;;;;;-128.00;-1.00;-1.00;103004;1257;1004594;-75
2024/02/04 06:28:59;;;;;;;2.40;1.60;;;;;;;-128.00;-1.00;-1.00;103061;1254;1004405;-79
2024/02/04 06:31:25;;;;;;;3.20;2.00;;;;;;;-128.00;-1.00;-1.00;103026;1254;1005093;-79
2024/02/04 06:33:52;;;;;;;4.90;2.30;;;;;;;-128.00;-1.00;-1.00;102930;1256;1004867;-75
2024/02/04 06:36:18;;;;;;;5.00;2.10;;;;;;;-128.00;-1.00;-1.00;102885;1253;1004367;-74
2024/02/04 06:38:45;;;;;;;2.70;1.90;;;;;;;-128.00;-1.00;-1.00;102887;1254;1003764;-74
2024/02/04 06:41:12;;;;;;;3.70;2.00;;;;;;;-128.00;-1.00;-1.00;102854;1256;1004347;-75
2024/02/04 06:43:39;;;;;;;2.90;1.90;;;;;;;-128.00;-1.00;-1.00;102937;1254;1004987;-78
2024/02/04 06:46:05;;;;;;;4.10;2.10;;;;;;;-128.00;-1.00;-1.00;103066;1254;1004536;-75
2024/02/04 06:48:31;;;;;;;8.20;3.20;;;;;;;-128.00;-1.00;-1.00;103045;1253;1004768;-75
2024/02/04 06:50:58;;;;;;;5.40;2.40;;;;;;;-128.00;-1.00;-1.00;103027;1252;1004121;-75
2024/02/04 06:53:25;;;;;;;4.60;1.90;;;;;;;-128.00;-1.00;-1.00;102924;1254;1004282;-75
2024/02/04 06:55:52;;;;;;;3.60;2.10;;;;;;;-128.00;-1.00;-1.00;103008;1252;1005864;-79
2024/02/04 06:58:18;;;;;;;4.40;3.00;;;;;;;-128.00;-1.00;-1.00;103047;1254;1004900;-75
2024/02/04 07:00:46;;;;;;;7.50;5.00;;;;;;;-128.00;-1.00;-1.00;103031;1254;1004957;-75
2024/02/04 07:03:12;;;;;;;6.00;2.70;;;;;;;-128.00;-1.00;-1.00;103005;1253;1005328;-75
2024/02/04 07:05:39;;;;;;;3.30;2.00;;;;;;;-128.00;-1.00;-1.00;103002;1257;1004074;-75
2024/02/04 07:08:06;;;;;;;5.90;2.40;;;;;;;-128.00;-1.00;-1.00;103007;1254;1004370;-75
2024/02/04 07:10:32;;;;;;;6.40;2.40;;;;;;;-128.00;-1.00;-1.00;103024;1256;1004479;-75
2024/02/04 07:12:59;;;;;;;8.10;5.50;;;;;;;-128.00;-1.00;-1.00;103051;1254;1004840;-79
2024/02/04 07:15:25;;;;;;;4.10;2.20;;;;;;;-128.00;-1.00;-1.00;102995;1254;1005560;-75
2024/02/04 07:17:51;;;;;;;7.10;1.70;;;;;;;-128.00;-1.00;-1.00;102963;1254;1004554;-75
2024/02/04 07:20:19;;;;;;;6.10;1.90;;;;;;;-128.00;-1.00;-1.00;102984;1254;1003705;-79
2024/02/04 07:22:46;;;;;;;2.30;1.80;;;;;;;-128.00;-1.00;-1.00;103089;1253;1004958;-79
2024/02/04 07:25:12;;;;;;;6.10;2.00;;;;;;;-128.00;-1.00;-1.00;103093;1256;1004063;-79
2024/02/04 07:27:39;;;;;;;4.40;2.30;;;;;;;-128.00;-1.00;-1.00;103094;1254;1004685;-75
2024/02/04 07:30:06;;;;;;;4.40;2.00;;;;;;;-128.00;-1.00;-1.00;104219;1253;1004553;-79
2024/02/04 07:32:34;;;;;;;3.60;2.00;;;;;;;-128.00;-1.00;-1.00;105212;1252;1004846;-75
2024/02/04 07:35:00;;;;;;;3.50;2.10;;;;;;;-128.00;-1.00;-1.00;104149;1253;1007634;-79
2024/02/04 07:37:27;;;;;;;7.50;2.70;;;;;;;-128.00;-1.00;-1.00;105679;1253;1004324;-75
2024/02/04 07:39:53;;;;;;;3.50;2.10;;;;;;;-128.00;-1.00;-1.00;104744;1253;1003835;-79
2024/02/04 07:42:20;;;;;;;2.40;1.80;;;;;;;-128.00;-1.00;-1.00;103028;1254;1004687;-75
2024/02/04 07:44:47;;;;;;;9.50;4.40;;;;;;;-128.00;-1.00;-1.00;103110;1253;1004326;-75
2024/02/04 07:47:13;;;;;;;9.20;6.30;;;;;;;-128.00;-1.00;-1.00;103071;1255;1004686;-79
2024/02/04 07:49:40;;;;;;;8.40;4.70;;;;;;;-128.00;-1.00;-1.00;103048;1253;1004650;-79
2024/02/04 07:52:06;;;;;;;7.90;3.60;;;;;;;-128.00;-1.00;-1.00;103069;1254;1003974;-78
2024/02/04 07:54:32;;;;;;;8.20;2.70;;;;;;;-128.00;-1.00;-1.00;103016;1253;1006432;-75
2024/02/04 07:56:59;;;;;;;10.70;3.50;;;;;;;-128.00;-1.00;-1.00;103006;1253;1004449;-75
2024/02/04 07:59:26;;;;;;;7.30;3.60;;;;;;;-128.00;-1.00;-1.00;103070;1253;1004829;-75
2024/02/04 08:01:52;;;;;;;4.70;2.70;;;;;;;-128.00;-1.00;-1.00;103033;1253;1006366;-75
2024/02/04 08:04:19;;;;;;;7.80;3.30;;;;;;;-128.00;-1.00;-1.00;103098;1255;1006959;-75
2024/02/04 08:06:46;;;;;;;7.20;3.30;;;;;;;-128.00;-1.00;-1.00;103058;1252;1005790;-75
2024/02/04 08:09:13;;;;;;;4.60;2.80;;;;;;;-128.00;-1.00;-1.00;103004;1253;1004939;-75
2024/02/04 08:11:39;;;;;;;8.20;3.20;;;;;;;-128.00;-1.00;-1.00;103079;1255;1004947;-79
2024/02/04 08:14:06;;;;;;;7.10;2.70;;;;;;;-128.00;-1.00;-1.00;103065;1253;1003600;-79
2024/02/04 08:16:32;;;;;;;12.10;4.80;;;;;;;-128.00;-1.00;-1.00;103080;1253;1004783;-74
2024/02/04 08:18:59;;;;;;;8.20;4.80;;;;;;;-128.00;-1.00;-1.00;103071;1252;1004671;-79
2024/02/04 08:21:26;;;;;;;7.40;3.70;;;;;;;-128.00;-1.00;-1.00;103164;1254;1003928;-79
2024/02/04 08:23:52;;;;;;;7.50;4.00;;;;;;;-128.00;-1.00;-1.00;103152;1253;1004733;-75
2024/02/04 08:26:19;;;;;;;7.40;4.10;;;;;;;-128.00;-1.00;-1.00;102974;1253;1004265;-80
2024/02/04 08:28:45;;;;;;;8.60;5.00;;;;;;;-128.00;-1.00;-1.00;102986;1253;1005042;-80
2024/02/04 08:31:11;;;;;;;6.80;3.90;;;;;;;-128.00;-1.00;-1.00;102964;1253;1004396;-75
2024/02/04 08:33:38;;;;;;;15.80;8.80;;;;;;;-128.00;-1.00;-1.00;103000;1253;1005938;-77
2024/02/04 08:36:06;;;;;;;18.10;8.30;;;;;;;-128.00;-1.00;-1.00;102987;1253;1004682;-79
2024/02/04 08:38:33;;;;;;;5.70;3.60;;;;;;;-128.00;-1.00;-1.00;103072;1253;1004651;-75
2024/02/04 08:41:00;;;;;;;4.40;3.30;;;;;;;-128.00;-1.00;-1.00;105266;1253;1004992;-75
2024/02/04 08:43:26;;;;;;;6.40;3.20;;;;;;;-128.00;-1.00;-1.00;102955;1254;1006896;-75
2024/02/04 08:45:53;;;;;;;5.50;2.70;;;;;;;-128.00;-1.00;-1.00;103003;1256;1004112;-75
2024/02/04 08:48:19;;;;;;;4.60;2.80;;;;;;;-128.00;-1.00;-1.00;103045;1253;1005729;-75
2024/02/04 08:50:45;;;;;;;5.80;2.90;;;;;;;-128.00;-1.00;-1.00;102995;1253;1004802;-75
2024/02/04 08:53:12;;;;;;;3.90;2.90;;;;;;;-128.00;-1.00;-1.00;104234;1253;1004856;-75
2024/02/04 08:55:39;;;;;;;5.40;3.20;;;;;;;-128.00;-1.00;-1.00;103004;1253;1004795;-75
2024/02/04 08:58:05;;;;;;;5.20;2.60;;;;;;;-128.00;-1.00;-1.00;103018;1253;1004580;-75
2024/02/04 09:00:32;;;;;;;7.60;3.80;;;;;;;-128.00;-1.00;-1.00;103017;1252;1004498;-75
2024/02/04 09:02:58;;;;;;;4.60;3.50;;;;;;;-128.00;-1.00;-1.00;102984;1253;1004967;-75
2024/02/04 09:05:25;;;;;;;6.20;3.30;;;;;;;-128.00;-1.00;-1.00;103014;1253;1005179;-79
2024/02/04 09:07:52;;;;;;;2.80;1.90;;;;;;;-128.00;-1.00;-1.00;104874;1252;1005078;-75
2024/02/04 09:10:18;;;;;;;4.30;2.50;;;;;;;-128.00;-1.00;-1.00;105674;1252;1003668;-75
2024/02/04 09:12:44;;;;;;;3.70;2.40;;;;;;;-128.00;-1.00;-1.00;105080;1252;1004628;-79
2024/02/04 09:15:11;;;;;;;4.50;2.80;;;;;;;-128.00;-1.00;-1.00;102981;1253;1005150;-79
2024/02/04 09:17:37;;;;;;;4.90;3.50;;;;;;;-128.00;-1.00;-1.00;102963;1253;1004089;-79
2024/02/04 09:20:05;;;;;;;4.10;2.80;;;;;;;-128.00;-1.00;-1.00;103015;1253;1005091;-78
2024/02/04 09:22:32;;;;;;;15.80;8.50;;;;;;;-128.00;-1.00;-1.00;105679;1252;1004883;-75
2024/02/04 09:24:59;;;;;;;8.80;5.80;;;;;;;-128.00;-1.00;-1.00;103095;1256;1004359;-78
2024/02/04 09:27:26;;;;;;;41.30;14.40;;;;;;;-128.00;-1.00;-1.00;103049;1252;1005040;-75
2024/02/04 09:29:54;;;;;;;52.40;16.40;;;;;;;-128.00;-1.00;-1.00;103067;1253;1004549;-79
2024/02/04 09:32:21;;;;;;;16.40;6.90;;;;;;;-128.00;-1.00;-1.00;103029;1253;1059147;-74
2024/02/04 09:34:48;;;;;;;49.60;18.00;;;;;;;-128.00;-1.00;-1.00;103055;1253;1004389;-79
2024/02/04 09:37:15;;;;;;;43.70;14.30;;;;;;;-128.00;-1.00;-1.00;103047;1252;1004853;-75
2024/02/04 09:39:42;;;;;;;34.20;12.70;;;;;;;-128.00;-1.00;-1.00;103112;1253;1004104;-75
2024/02/04 09:42:08;;;;;;;54.10;18.20;;;;;;;-128.00;-1.00;-1.00;103054;1252;1005472;-75
2024/02/04 09:44:35;;;;;;;31.70;13.10;;;;;;;-128.00;-1.00;-1.00;103024;1253;1004350;-75
2024/02/04 09:47:02;;;;;;;32.20;15.70;;;;;;;-128.00;-1.00;-1.00;103084;1256;1005455;-75
2024/02/04 09:49:29;;;;;;;23.60;9.40;;;;;;;-128.00;-1.00;-1.00;103014;1253;1004203;-79
2024/02/04 09:51:56;;;;;;;44.10;18.20;;;;;;;-128.00;-1.00;-1.00;102906;1253;1005328;-79
2024/02/04 09:54:23;;;;;;;26.10;12.90;;;;;;;-128.00;-1.00;-1.00;103051;1255;1004305;-79
2024/02/04 09:56:50;;;;;;;10.60;5.60;;;;;;;-128.00;-1.00;-1.00;102974;1253;1003871;-80
2024/02/04 09:59:17;;;;;;;10.90;4.10;;;;;;;-128.00;-1.00;-1.00;102992;1253;1004233;-75
2024/02/04 10:01:44;;;;;;;30.80;13.00;;;;;;;-128.00;-1.00;-1.00;103006;1256;1004585;-78
2024/02/04 10:04:10;;;;;;;13.60;6.10;;;;;;;-128.00;-1.00;-1.00;102980;1253;1004918;-79
2024/02/04 10:06:37;;;;;;;5.70;3.00;;;;;;;-128.00;-1.00;-1.00;103011;1252;1004399;-80
2024/02/04 10:09:03;;;;;;;7.70;3.80;;;;;;;-128.00;-1.00;-1.00;103090;1253;1004646;-79
2024/02/04 10:11:30;;;;;;;37.70;20.30;;;;;;;-128.00;-1.00;-1.00;103011;1253;1003643;-79
2024/02/04 10:13:56;;;;;;;22.50;10.70;;;;;;;-128.00;-1.00;-1.00;102973;1253;1004920;-75
2024/02/04 10:16:23;;;;;;;28.60;10.40;;;;;;;-128.00;-1.00;-1.00;102909;1253;1005987;-75
2024/02/04 10:18:49;;;;;;;20.90;9.00;;;;;;;-128.00;-1.00;-1.00;102913;1253;1004626;-79
2024/02/04 10:21:20;;;;;;;8.50;3.80;;;;;;;-128.00;-1.00;-1.00;103034;1253;1004088;-75
2024/02/04 10:23:47;;;;;;;4.70;2.10;;;;;;;-128.00;-1.00;-1.00;103064;1254;1045527;-75
2024/02/04 10:26:14;;;;;;;16.60;5.50;;;;;;;-128.00;-1.00;-1.00;103070;1253;1004674;-79
2024/02/04 10:28:41;;;;;;;5.40;3.20;;;;;;;-128.00;-1.00;-1.00;102986;1253;1004606;-79
2024/02/04 10:31:10;;;;;;;20.50;7.70;;;;;;;-128.00;-1.00;-1.00;102954;1253;1004106;-79
2024/02/04 10:33:37;;;;;;;21.00;9.00;;;;;;;-128.00;-1.00;-1.00;103033;1253;1060180;-75
2024/02/04 10:36:04;;;;;;;4.90;3.00;;;;;;;-128.00;-1.00;-1.00;103032;1253;1005308;-79
2024/02/04 10:38:31;;;;;;;17.50;7.70;;;;;;;-128.00;-1.00;-1.00;103056;1253;1005168;-75
2024/02/04 10:40:59;;;;;;;9.50;4.40;;;;;;;-128.00;-1.00;-1.00;103096;1252;1004100;-75
2024/02/04 10:43:28;;;;;;;8.80;4.60;;;;;;;-128.00;-1.00;-1.00;103058;1251;1005250;-75
2024/02/04 10:45:56;;;;;;;24.90;15.10;;;;;;;-128.00;-1.00;-1.00;103775;1253;1059916;-75
2024/02/04 10:48:24;;;;;;;6.70;3.60;;;;;;;-128.00;-1.00;-1.00;104294;1252;1004275;-75
2024/02/04 10:50:51;;;;;;;22.80;11.20;;;;;;;-128.00;-1.00;-1.00;103053;1253;1005507;-75
2024/02/04 10:53:18;;;;;;;48.90;19.80;;;;;;;-128.00;-1.00;-1.00;105200;1253;1006359;-80
2024/02/04 10:55:45;;;;;;;49.80;25.90;;;;;;;-128.00;-1.00;-1.00;103013;1253;1004364;-75
2024/02/04 10:58:12;;;;;;;111.50;47.80;;;;;;;-128.00;-1.00;-1.00;103056;1253;1004806;-75
2024/02/04 11:00:40;;;;;;;16.50;8.50;;;;;;;-128.00;-1.00;-1.00;103041;1253;1005469;-75
2024/02/04 11:03:06;;;;;;;11.00;6.30;;;;;;;-128.00;-1.00;-1.00;103024;1253;1004933;-75
2024/02/04 11:05:35;;;;;;;24.50;13.30;;;;;;;-128.00;-1.00;-1.00;102985;1253;1005275;-75
2024/02/04 11:08:03;;;;;;;8.40;4.20;;;;;;;-128.00;-1.00;-1.00;103017;1253;1058375;-75
2024/02/04 11:10:31;;;;;;;45.50;25.10;;;;;;;-128.00;-1.00;-1.00;103532;1253;1004947;-75
2024/02/04 11:12:58;;;;;;;23.00;14.30;;;;;;;-128.00;-1.00;-1.00;103008;1253;1004469;-75